Time;durP1;ratioP1;P1;durP2;ratioP2;P2;SDS_P1;SDS_P2;PMS_P1;PMS_P2;Temp;Humidity;BMP_temperature;BMP_pressure;BME280_temperature;BME280_humidity;BME280_pressure;Samples;Min_cycle;Max_cycle;Signal;HPM_P1;HPM_P2
2023/08/17 00:00:17;;;;;;;39.80;37.47;;;23.90;99.90;;;;;;5012943;28;20033;-83
2023/08/17 00:02:43;;;;;;;32.72;30.67;;;23.90;99.90;;;;;;5014853;28;20037;-82
2023/08/17 00:05:10;;;;;;;36.33;34.35;;;23.80;99.90;;;;;;5014608;28;20038;-82
2023/08/17 00:07:36;;;;;;;113.22;107.43;;;23.80;99.90;;;;;;5013172;28;20038;-83
2023/08/17 00:10:02;;;;;;;62.72;59.20;;;23.80;99.90;;;;;;5014321;28;20038;-83
2023/08/17 00:12:28;;;;;;;84.30;79.80;;;23.90;99.90;;;;;;5013065;28;20030;-83
2023/08/17 00:14:55;;;;;;;51.95;49.13;;;23.90;99.90;;;;;;5013369;28;20464;-82
2023/08/17 00:17:22;;;;;;;98.45;93.28;;;24.00;99.90;;;;;;5013855;28;20045;-82
2023/08/17 00:19:48;;;;;;;78.32;74.07;;;24.00;99.90;;;;;;5013480;28;20064;-82
2023/08/17 00:22:14;;;;;;;74.82;70.70;;;24.00;99.90;;;;;;5013869;28;20034;-82
2023/08/17 00:24:41;;;;;;;69.60;65.93;;;23.80;99.90;;;;;;5014680;28;20030;-82
2023/08/17 00:27:07;;;;;;;51.65;48.58;;;23.80;99.90;;;;;;5013980;28;20034;-82
2023/08/17 00:29:35;;;;;;;50.05;47.22;;;23.90;99.90;;;;;;5014378;28;20037;-83
2023/08/17 00:32:01;;;;;;;48.15;45.50;;;24.00;99.90;;;;;;5012239;28;20046;-82
2023/08/17 00:34:27;;;;;;;107.80;102.25;;;23.90;99.90;;;;;;5014106;28;20034;-82
2023/08/17 00:36:53;;;;;;;80.85;76.43;;;23.80;99.90;;;;;;5013622;28;20033;-82
2023/08/17 00:39:19;;;;;;;81.85;77.25;;;23.90;99.90;;;;;;5014142;28;20463;-82
2023/08/17 00:41:46;;;;;;;80.97;76.68;;;23.80;99.90;;;;;;5014118;28;20042;-82
2023/08/17 00:44:12;;;;;;;153.27;145.30;;;23.60;99.90;;;;;;5014082;28;20045;-82
2023/08/17 00:46:38;;;;;;;88.28;83.82;;;23.60;99.90;;;;;;5013236;28;20045;-82
2023/08/17 00:49:05;;;;;;;85.30;80.88;;;23.50;99.90;;;;;;5013799;28;20116;-82
2023/08/17 00:51:31;;;;;;;49.63;46.65;;;23.60;99.90;;;;;;5011949;28;20033;-82
2023/08/17 00:53:58;;;;;;;42.78;40.28;;;23.70;99.90;;;;;;5013785;28;20502;-83
2023/08/17 00:56:25;;;;;;;58.53;55.28;;;23.80;99.90;;;;;;5012568;28;20046;-82
2023/08/17 00:58:51;;;;;;;47.95;44.88;;;23.80;99.90;;;;;;5012553;28;20026;-82
2023/08/17 01:01:17;;;;;;;42.17;39.72;;;23.80;99.90;;;;;;5011946;28;20030;-82
2023/08/17 01:03:43;;;;;;;51.38;48.38;;;23.80;99.90;;;;;;5013297;28;20037;-82
2023/08/17 01:06:09;;;;;;;42.83;40.20;;;23.60;99.90;;;;;;5013366;28;20034;-82
2023/08/17 01:08:39;;;;;;;38.72;36.22;;;23.60;99.90;;;;;;5013517;28;20029;-82
2023/08/17 01:11:28;;;;;;;46.00;43.20;;;23.60;99.90;;;;;;5012265;28;20034;-82
2023/08/17 01:14:15;;;;;;;42.63;40.22;;;23.40;99.90;;;;;;5006646;28;20506;-82
2023/08/17 01:16:46;;;;;;;39.53;37.08;;;23.30;99.90;;;;;;5012762;28;20407;-83
2023/08/17 01:19:12;;;;;;;33.92;31.77;;;23.20;99.90;;;;;;5011829;28;20026;-82
2023/08/17 01:21:42;;;;;;;29.13;27.33;;;23.00;99.90;;;;;;5011105;28;20387;-82
2023/08/17 01:24:09;;;;;;;32.53;30.58;;;23.00;99.90;;;;;;5012146;28;20030;-82
2023/08/17 01:26:35;;;;;;;42.63;40.15;;;22.90;99.90;;;;;;5011807;28;20041;-82
2023/08/17 01:29:01;;;;;;;39.03;36.70;;;23.00;99.90;;;;;;5013427;28;20034;-83
2023/08/17 01:31:31;;;;;;;40.58;38.22;;;23.00;99.90;;;;;;5011007;28;20060;-82
2023/08/17 01:34:03;;;;;;;38.50;36.38;;;23.10;99.90;;;;;;5011759;28;20049;-83
2023/08/17 01:36:42;;;;;;;51.28;48.42;;;23.10;99.90;;;;;;5012805;28;20506;-83
2023/08/17 01:39:08;;;;;;;37.45;35.30;;;23.20;99.90;;;;;;5012030;28;20029;-82
2023/08/17 01:41:34;;;;;;;38.10;35.90;;;23.20;99.90;;;;;;5011665;28;20038;-82
2023/08/17 01:44:00;;;;;;;32.25;30.38;;;23.20;99.90;;;;;;5011955;28;20030;-82
2023/08/17 01:46:30;;;;;;;37.10;34.88;;;23.40;99.90;;;;;;5012120;28;20066;-82
2023/08/17 01:48:56;;;;;;;35.67;33.60;;;23.20;99.90;;;;;;5012902;28;20049;-82
2023/08/17 01:51:23;;;;;;;32.13;30.20;;;23.30;99.90;;;;;;5012398;28;20037;-82
2023/08/17 01:53:49;;;;;;;32.03;30.02;;;23.40;99.90;;;;;;5012936;28;20054;-83
2023/08/17 01:56:15;;;;;;;30.50;28.65;;;23.40;99.90;;;;;;5011061;28;20041;-83
2023/08/17 01:58:41;;;;;;;41.67;39.30;;;23.40;99.90;;;;;;5010867;28;20026;-82
2023/08/17 02:01:07;;;;;;;32.17;30.27;;;23.40;99.90;;;;;;5003617;28;20030;-82
2023/08/17 02:03:33;;;;;;;31.92;29.83;;;23.50;99.90;;;;;;5007079;28;20025;-83
2023/08/17 02:05:59;;;;;;;29.65;27.92;;;23.40;99.90;;;;;;5010039;28;20033;-82
2023/08/17 02:08:25;;;;;;;31.13;28.92;;;23.20;99.90;;;;;;5011381;28;20026;-82
2023/08/17 02:10:52;;;;;;;26.75;24.92;;;23.10;99.90;;;;;;5010134;28;20034;-82
2023/08/17 02:13:18;;;;;;;28.58;26.83;;;23.00;99.90;;;;;;5011408;28;20040;-82
2023/08/17 02:15:45;;;;;;;26.25;24.52;;;23.00;99.90;;;;;;5010676;28;20042;-81
2023/08/17 02:18:11;;;;;;;25.25;23.65;;;23.00;99.90;;;;;;5009886;28;20044;-82
2023/08/17 02:20:37;;;;;;;23.25;21.75;;;22.80;99.90;;;;;;5011031;28;20395;-82
2023/08/17 02:23:03;;;;;;;24.60;23.02;;;22.70;99.90;;;;;;5010044;28;20041;-80
2023/08/17 02:25:35;;;;;;;28.10;26.08;;;22.60;99.90;;;;;;5011051;28;20619;-82
2023/08/17 02:28:02;;;;;;;30.60;28.50;;;22.50;99.90;;;;;;5011296;28;20032;-82
2023/08/17 02:30:28;;;;;;;29.02;27.33;;;22.50;99.90;;;;;;5010389;28;20041;-82
2023/08/17 02:32:55;;;;;;;28.48;26.65;;;22.40;99.90;;;;;;5010074;28;20052;-82
2023/08/17 02:35:21;;;;;;;24.45;22.75;;;22.60;99.90;;;;;;5015000;28;20045;-82
2023/08/17 02:37:47;;;;;;;24.10;22.25;;;22.60;99.90;;;;;;5015226;28;20379;-83
2023/08/17 02:40:13;;;;;;;23.80;22.15;;;22.60;99.90;;;;;;5016230;28;20034;-82
2023/08/17 02:42:39;;;;;;;31.23;29.13;;;22.50;99.90;;;;;;5016272;28;20033;-83
2023/08/17 02:45:09;;;;;;;35.65;33.55;;;22.40;99.90;;;;;;5016271;28;20034;-81
2023/08/17 02:47:35;;;;;;;33.03;31.05;;;22.40;99.90;;;;;;4995068;28;20043;-82
2023/08/17 02:50:01;;;;;;;32.53;30.55;;;22.50;99.90;;;;;;5005366;28;20482;-82
2023/08/17 02:52:27;;;;;;;32.45;30.55;;;22.60;99.90;;;;;;5015794;28;20046;-82
2023/08/17 02:54:53;;;;;;;33.72;31.45;;;22.70;99.90;;;;;;5016009;28;20034;-82
2023/08/17 02:57:20;;;;;;;31.02;29.17;;;22.80;99.90;;;;;;5015734;28;20037;-81
2023/08/17 02:59:46;;;;;;;47.78;44.95;;;22.70;99.90;;;;;;5015624;28;20033;-82
2023/08/17 03:02:12;;;;;;;39.83;37.50;;;22.70;99.90;;;;;;5015153;28;20041;-82
2023/08/17 03:04:38;;;;;;;48.95;46.20;;;22.80;99.90;;;;;;5015754;28;20502;-82
2023/08/17 03:07:04;;;;;;;49.40;46.50;;;22.80;99.90;;;;;;5015403;28;20030;-82
2023/08/17 03:09:31;;;;;;;25.88;24.13;;;22.70;99.90;;;;;;5015937;28;20494;-82
2023/08/17 03:11:57;;;;;;;26.40;24.13;;;22.60;99.90;;;;;;5015658;28;20050;-82
2023/08/17 03:14:23;;;;;;;35.22;32.85;;;22.50;99.90;;;;;;5015582;28;20423;-82
2023/08/17 03:16:49;;;;;;;27.65;25.77;;;22.40;99.90;;;;;;5014981;28;20034;-82
2023/08/17 03:19:15;;;;;;;30.23;28.45;;;22.30;99.90;;;;;;5015737;28;20026;-82
2023/08/17 03:21:41;;;;;;;30.52;28.48;;;22.40;99.90;;;;;;5014305;28;20475;-83
2023/08/17 03:24:07;;;;;;;36.25;33.97;;;22.40;99.90;;;;;;5015581;28;20026;-82
2023/08/17 03:26:33;;;;;;;35.15;33.05;;;22.40;99.90;;;;;;5015445;28;20069;-82
2023/08/17 03:28:59;;;;;;;96.13;91.25;;;22.40;99.90;;;;;;5015176;28;20026;-82
2023/08/17 03:31:25;;;;;;;63.90;60.30;;;22.50;99.90;;;;;;5014585;28;20045;-82
2023/08/17 03:33:52;;;;;;;55.50;52.33;;;22.50;99.90;;;;;;5015568;28;20026;-82
2023/08/17 03:36:18;;;;;;;40.03;37.83;;;22.40;99.90;;;;;;5015050;28;20037;-82
2023/08/17 03:38:44;;;;;;;40.25;37.85;;;22.20;99.90;;;;;;5014029;28;20036;-82
2023/08/17 03:41:10;;;;;;;41.88;39.53;;;22.10;99.90;;;;;;5015059;28;20037;-82
2023/08/17 03:43:36;;;;;;;40.20;37.75;;;22.00;99.90;;;;;;4997293;28;20502;-83
2023/08/17 03:46:04;;;;;;;37.22;34.63;;;22.00;99.90;;;;;;5013435;28;20038;-83
2023/08/17 03:48:30;;;;;;;49.03;46.33;;;22.00;99.90;;;;;;5015222;28;20464;-82
2023/08/17 03:50:56;;;;;;;43.38;40.83;;;21.90;99.90;;;;;;5015006;28;20041;-82
2023/08/17 03:53:22;;;;;;;38.55;36.03;;;21.80;99.90;;;;;;5015014;28;20379;-82
2023/08/17 03:55:49;;;;;;;37.22;35.00;;;21.70;99.90;;;;;;5014671;28;20038;-83
2023/08/17 03:58:15;;;;;;;37.58;35.17;;;21.70;99.90;;;;;;5014648;28;20030;-83
2023/08/17 04:00:42;;;;;;;38.95;36.67;;;21.70;99.90;;;;;;5014267;28;20057;-82
2023/08/17 04:03:08;;;;;;;38.20;35.88;;;21.70;99.90;;;;;;5014748;28;20045;-82
2023/08/17 04:05:34;;;;;;;36.42;34.30;;;21.70;99.90;;;;;;5013507;28;20026;-82
2023/08/17 04:08:02;;;;;;;34.08;31.88;;;21.70;99.90;;;;;;5014881;28;20456;-82
2023/08/17 04:10:29;;;;;;;31.83;29.73;;;21.50;99.90;;;;;;5014535;28;21040;-82
2023/08/17 04:12:58;;;;;;;67.55;63.67;;;21.40;99.90;;;;;;5013047;28;20045;-82
2023/08/17 04:15:24;;;;;;;37.17;35.10;;;21.40;99.90;;;;;;5013691;28;20045;-82
2023/08/17 04:17:50;;;;;;;34.60;32.50;;;21.50;99.90;;;;;;5014784;28;20030;-81
2023/08/17 04:20:18;;;;;;;36.45;34.20;;;21.50;99.90;;;;;;5013246;28;20034;-81
2023/08/17 04:22:44;;;;;;;38.60;36.25;;;21.60;99.90;;;;;;5013310;28;20034;-82
2023/08/17 04:25:10;;;;;;;38.03;35.67;;;21.60;99.90;;;;;;5014103;28;20022;-81
2023/08/17 04:27:36;;;;;;;41.50;39.03;;;21.70;99.90;;;;;;5014322;28;20506;-82
2023/08/17 04:30:03;;;;;;;40.70;38.38;;;21.80;99.90;;;;;;5013975;28;20038;-79
2023/08/17 04:32:29;;;;;;;36.38;34.15;;;21.80;99.90;;;;;;5013811;28;20034;-81
2023/08/17 04:34:56;;;;;;;35.40;33.22;;;21.60;99.90;;;;;;5014143;28;20037;-81
2023/08/17 04:37:22;;;;;;;34.97;32.80;;;21.50;99.90;;;;;;5014030;28;20048;-81
2023/08/17 04:39:49;;;;;;;41.08;38.08;;;21.50;99.90;;;;;;5014182;28;20025;-82
2023/08/17 04:42:15;;;;;;;38.25;35.63;;;21.50;99.90;;;;;;5013846;28;20030;-82
2023/08/17 04:44:41;;;;;;;32.00;29.90;;;21.50;99.90;;;;;;5013008;28;20041;-82
2023/08/17 04:47:07;;;;;;;34.92;32.63;;;21.40;99.90;;;;;;5013212;28;20026;-82
2023/08/17 04:49:33;;;;;;;31.50;29.30;;;21.40;99.90;;;;;;5013818;28;20037;-82
2023/08/17 04:51:59;;;;;;;35.22;33.03;;;21.30;99.90;;;;;;5013926;28;20045;-81
2023/08/17 04:54:25;;;;;;;41.92;39.22;;;21.30;99.90;;;;;;5013645;28;20471;-81
2023/08/17 04:56:51;;;;;;;61.20;57.80;;;21.30;99.90;;;;;;5013000;28;20045;-81
2023/08/17 04:59:17;;;;;;;55.78;52.70;;;21.30;99.90;;;;;;5013811;28;20424;-82
2023/08/17 05:01:43;;;;;;;55.70;52.50;;;21.50;99.90;;;;;;5011894;28;20046;-81
2023/08/17 05:04:11;;;;;;;55.63;52.38;;;21.60;99.90;;;;;;5013915;28;20173;-82
2023/08/17 05:06:38;;;;;;;51.60;48.45;;;21.60;99.90;;;;;;5013362;28;20038;-82
2023/08/17 05:09:04;;;;;;;42.05;39.60;;;21.60;99.90;;;;;;5013744;28;20038;-81
2023/08/17 05:11:31;;;;;;;46.58;43.67;;;21.50;99.90;;;;;;5013409;28;20096;-82
2023/08/17 05:13:57;;;;;;;55.55;52.35;;;21.40;99.90;;;;;;5013512;28;20030;-82
2023/08/17 05:16:23;;;;;;;58.28;54.80;;;21.50;99.90;;;;;;5011697;28;20053;-79
2023/08/17 05:18:49;;;;;;;52.45;49.58;;;21.50;99.90;;;;;;5013822;28;20038;-82
2023/08/17 05:21:15;;;;;;;43.85;41.35;;;21.50;99.90;;;;;;5013392;28;20041;-82
2023/08/17 05:23:41;;;;;;;37.85;35.72;;;21.50;99.90;;;;;;5013187;28;20025;-82
2023/08/17 05:26:08;;;;;;;36.42;34.15;;;21.40;99.90;;;;;;5011549;28;20038;-82
2023/08/17 05:28:34;;;;;;;39.25;37.03;;;21.40;99.90;;;;;;5013634;28;20395;-82
2023/08/17 05:31:05;;;;;;;44.58;41.78;;;21.60;99.90;;;;;;5012503;28;20030;-82
2023/08/17 05:33:31;;;;;;;43.33;40.63;;;21.60;99.90;;;;;;5013369;28;20379;-82
2023/08/17 05:35:58;;;;;;;45.15;42.40;;;21.70;99.90;;;;;;5012643;28;20042;-82
2023/08/17 05:38:24;;;;;;;46.20;43.70;;;21.80;99.90;;;;;;5012050;28;20375;-81
2023/08/17 05:40:56;;;;;;;41.53;38.97;;;21.70;99.90;;;;;;5012448;28;20040;-82
2023/08/17 05:43:23;;;;;;;45.22;42.58;;;21.60;99.90;;;;;;5013019;28;20030;-81
2023/08/17 05:45:49;;;;;;;46.72;43.88;;;21.60;99.90;;;;;;5012392;28;20034;-81
2023/08/17 05:48:15;;;;;;;31.58;29.38;;;21.50;99.90;;;;;;5013184;28;20029;-82
2023/08/17 05:50:42;;;;;;;37.17;34.60;;;21.70;99.90;;;;;;5012580;28;20367;-81
2023/08/17 05:53:08;;;;;;;71.32;67.28;;;21.80;99.90;;;;;;4995399;28;20045;-81
2023/08/17 05:55:34;;;;;;;52.60;49.35;;;22.00;99.90;;;;;;5012280;28;20487;-82
2023/08/17 05:58:00;;;;;;;35.53;33.22;;;22.20;99.90;;;;;;5012780;28;20034;-82
2023/08/17 06:00:26;;;;;;;34.65;32.55;;;22.40;99.90;;;;;;5012009;28;20026;-81
2023/08/17 06:02:52;;;;;;;64.53;60.85;;;22.50;99.90;;;;;;5012627;28;20036;-80
2023/08/17 06:05:18;;;;;;;88.05;83.32;;;22.50;99.90;;;;;;5012495;28;20026;-81
2023/08/17 06:07:44;;;;;;;112.25;106.60;;;22.40;99.90;;;;;;5012111;28;20038;-80
2023/08/17 06:10:11;;;;;;;142.90;135.57;;;22.40;99.90;;;;;;5012140;28;20026;-82
2023/08/17 06:12:37;;;;;;;147.13;139.75;;;22.50;99.90;;;;;;4991312;28;20042;-81
2023/08/17 06:15:03;;;;;;;56.92;53.72;;;22.60;99.90;;;;;;4992672;28;20412;-80
2023/08/17 06:17:30;;;;;;;43.67;41.33;;;22.80;99.90;;;;;;5011521;28;20037;-80
2023/08/17 06:19:56;;;;;;;48.50;45.70;;;23.00;99.90;;;;;;5012656;28;20045;-81
2023/08/17 06:22:22;;;;;;;51.70;48.70;;;22.90;99.90;;;;;;5012273;28;20061;-81
2023/08/17 06:24:48;;;;;;;46.97;44.15;;;22.80;99.90;;;;;;5012182;28;20030;-82
2023/08/17 06:27:15;;;;;;;47.25;44.53;;;22.80;99.90;;;;;;5012135;28;20487;-81
2023/08/17 06:29:41;;;;;;;48.65;45.92;;;22.90;99.90;;;;;;5012634;28;20490;-81
2023/08/17 06:32:08;;;;;;;60.42;56.90;;;22.90;99.90;;;;;;5011575;28;20037;-81
2023/08/17 06:34:34;;;;;;;78.80;74.68;;;22.80;99.90;;;;;;5012583;28;20037;-82
2023/08/17 06:37:02;;;;;;;72.40;68.50;;;23.00;99.90;;;;;;5012177;28;20034;-82
2023/08/17 06:39:28;;;;;;;62.00;58.50;;;23.20;99.90;;;;;;5010974;28;20026;-82
2023/08/17 06:41:54;;;;;;;65.85;62.30;;;23.20;99.90;;;;;;5012081;28;20049;-82
2023/08/17 06:44:20;;;;;;;78.72;74.45;;;23.10;99.90;;;;;;5012449;28;20026;-81
2023/08/17 06:46:47;;;;;;;89.38;84.80;;;23.10;99.90;;;;;;5010316;28;20030;-82
2023/08/17 06:49:13;;;;;;;91.65;86.90;;;23.20;99.90;;;;;;5012347;28;20395;-81
2023/08/17 06:51:39;;;;;;;95.30;90.30;;;23.40;99.90;;;;;;5011973;28;20034;-81
2023/08/17 06:54:07;;;;;;;106.38;100.75;;;23.60;99.90;;;;;;5010705;28;20026;-82
2023/08/17 06:56:33;;;;;;;80.13;76.07;;;23.50;99.90;;;;;;5011881;28;20042;-82
2023/08/17 06:58:59;;;;;;;108.38;102.70;;;23.50;99.90;;;;;;5012327;28;20037;-82
2023/08/17 07:01:26;;;;;;;87.55;83.07;;;23.40;99.90;;;;;;5011471;28;20042;-82
2023/08/17 07:03:52;;;;;;;69.72;65.78;;;23.60;99.90;;;;;;5012391;28;20042;-81
2023/08/17 07:06:19;;;;;;;73.65;69.40;;;23.70;99.90;;;;;;5011747;28;20034;-81
2023/08/17 07:08:45;;;;;;;105.90;100.45;;;23.80;99.90;;;;;;5012320;28;20041;-81
2023/08/17 07:11:11;;;;;;;94.13;89.13;;;23.80;99.90;;;;;;5011893;28;20048;-82
2023/08/17 07:13:38;;;;;;;90.63;86.00;;;23.80;99.90;;;;;;5012130;28;20029;-80
2023/08/17 07:16:04;;;;;;;78.45;74.35;;;24.00;99.90;;;;;;5011340;28;20058;-82
2023/08/17 07:18:30;;;;;;;95.18;90.18;;;24.10;99.90;;;;;;5011990;28;20033;-81
2023/08/17 07:20:56;;;;;;;119.70;113.80;;;23.90;99.90;;;;;;5014671;28;20390;-82
2023/08/17 07:23:22;;;;;;;99.70;94.32;;;23.90;99.90;;;;;;5015535;28;20037;-82
2023/08/17 07:25:48;;;;;;;132.43;125.63;;;23.80;99.90;;;;;;5015258;28;20034;-82
2023/08/17 07:28:15;;;;;;;121.32;115.28;;;23.80;99.90;;;;;;5014458;28;20034;-82
2023/08/17 07:30:41;;;;;;;83.15;78.82;;;23.80;99.90;;;;;;5014791;28;20395;-83
2023/08/17 07:33:07;;;;;;;113.50;107.78;;;24.10;99.90;;;;;;5014053;28;20046;-81
2023/08/17 07:35:33;;;;;;;100.18;94.85;;;24.30;99.90;;;;;;5014715;28;20052;-82
2023/08/17 07:38:00;;;;;;;79.60;75.43;;;24.40;99.90;;;;;;5015281;28;20034;-82
2023/08/17 07:40:26;;;;;;;87.63;82.72;;;24.50;99.90;;;;;;5014661;28;20034;-82
2023/08/17 07:42:52;;;;;;;103.85;98.32;;;24.40;99.90;;;;;;5015501;28;20030;-81
2023/08/17 07:45:18;;;;;;;82.95;78.88;;;24.50;99.90;;;;;;5014632;28;20037;-81
2023/08/17 07:47:44;;;;;;;78.75;74.63;;;24.60;99.90;;;;;;5015218;28;20044;-82
2023/08/17 07:50:10;;;;;;;90.07;85.03;;;24.70;99.90;;;;;;5014444;28;20368;-81
2023/08/17 07:52:36;;;;;;;85.25;80.85;;;24.60;99.90;;;;;;4995440;28;20046;-83
2023/08/17 07:55:03;;;;;;;77.22;73.07;;;24.80;99.90;;;;;;4995547;28;20380;-81
2023/08/17 07:57:29;;;;;;;81.75;77.43;;;24.90;99.90;;;;;;5013697;28;20506;-83
2023/08/17 07:59:55;;;;;;;85.63;81.28;;;25.00;99.90;;;;;;5015011;28;20030;-82
2023/08/17 08:02:21;;;;;;;95.50;90.55;;;25.10;99.90;;;;;;5014155;28;20045;-83
2023/08/17 08:04:47;;;;;;;94.28;89.57;;;25.30;99.90;;;;;;5014760;28;20094;-81
2023/08/17 08:07:13;;;;;;;104.55;99.20;;;25.30;99.90;;;;;;5014440;28;20053;-83
2023/08/17 08:09:39;;;;;;;100.68;95.60;;;25.50;99.90;;;;;;5015122;28;20026;-83
2023/08/17 08:12:07;;;;;;;92.78;88.15;;;25.50;99.90;;;;;;5014262;28;20410;-82
2023/08/17 08:14:34;;;;;;;99.57;94.45;;;25.50;99.90;;;;;;5012620;28;20475;-83
2023/08/17 08:17:01;;;;;;;107.97;102.53;;;25.70;99.90;;;;;;5012783;28;20057;-81
2023/08/17 08:19:27;;;;;;;121.18;115.22;;;25.90;99.90;;;;;;5014230;28;20383;-82
2023/08/17 08:21:53;;;;;;;128.05;121.63;;;26.20;99.90;;;;;;5014299;28;20036;-81
2023/08/17 08:24:19;;;;;;;109.18;103.85;;;26.30;99.90;;;;;;5014584;28;20386;-83
2023/08/17 08:26:45;;;;;;;106.32;101.05;;;26.40;99.90;;;;;;5014089;28;20041;-82
2023/08/17 08:29:11;;;;;;;109.43;103.88;;;26.30;99.90;;;;;;5014353;28;20030;-81
2023/08/17 08:31:37;;;;;;;126.20;119.82;;;26.30;99.90;;;;;;5013144;28;20407;-82
2023/08/17 08:34:03;;;;;;;224.48;213.23;;;26.50;99.90;;;;;;5013987;28;20025;-82
2023/08/17 08:36:29;;;;;;;138.30;131.43;;;26.80;99.90;;;;;;5013795;28;20475;-81
2023/08/17 08:38:55;;;;;;;169.18;160.77;;;26.70;99.90;;;;;;5014421;28;20033;-81
2023/08/17 08:41:22;;;;;;;193.48;184.05;;;26.80;99.90;;;;;;5013813;28;20383;-83
2023/08/17 08:43:48;;;;;;;208.20;198.18;;;26.90;99.90;;;;;;5012875;28;20032;-82
2023/08/17 08:46:16;;;;;;;194.25;184.85;;;27.00;99.90;;;;;;5013570;28;20030;-82
2023/08/17 08:48:42;;;;;;;179.98;170.63;;;27.10;99.90;;;;;;4996420;28;20037;-82
2023/08/17 08:51:09;;;;;;;194.32;184.93;;;27.40;99.90;;;;;;5012351;28;20133;-80
2023/08/17 08:53:38;;;;;;;146.65;139.15;;;27.60;99.90;;;;;;5012462;28;20050;-82
2023/08/17 08:56:04;;;;;;;141.57;134.35;;;27.70;99.90;;;;;;5013537;28;20404;-81
2023/08/17 08:58:31;;;;;;;156.30;148.52;;;27.60;99.90;;;;;;5012426;28;20467;-82
2023/08/17 09:00:57;;;;;;;148.98;141.55;;;27.40;99.90;;;;;;5013196;28;20030;-82
2023/08/17 09:03:25;;;;;;;207.50;197.20;;;27.40;99.90;;;;;;5013378;28;20030;-82
2023/08/17 09:05:51;;;;;;;204.85;195.02;;;27.20;99.90;;;;;;5013633;28;20046;-82
2023/08/17 09:08:27;;;;;;;191.52;182.27;;;27.30;99.90;;;;;;5012491;28;20030;-81
2023/08/17 09:10:53;;;;;;;134.27;127.63;;;27.50;99.90;;;;;;5012270;28;20045;-82
2023/08/17 09:13:19;;;;;;;132.02;125.30;;;27.60;99.90;;;;;;5013388;28;20033;-81
2023/08/17 09:15:45;;;;;;;140.25;133.18;;;27.90;99.90;;;;;;5012877;28;20044;-81
2023/08/17 09:18:11;;;;;;;141.55;134.32;;;27.90;99.90;;;;;;5013108;28;20467;-80
2023/08/17 09:20:41;;;;;;;144.88;137.60;;;28.00;99.90;;;;;;5012970;28;20030;-81
2023/08/17 09:23:12;;;;;;;165.85;157.82;;;28.30;99.90;;;;;;5012145;28;20042;-81
2023/08/17 09:25:41;;;;;;;203.35;193.75;;;28.60;99.90;;;;;;5013562;28;20441;-82
2023/08/17 09:28:12;;;;;;;231.77;220.70;;;28.80;99.90;;;;;;5013231;28;20026;-80
2023/08/17 09:30:53;;;;;;;231.10;219.93;;;28.70;99.90;;;;;;5012602;28;20438;-81
2023/08/17 09:33:23;;;;;;;220.40;209.95;;;28.70;99.90;;;;;;5013279;28;20042;-81
2023/08/17 09:35:50;;;;;;;202.27;192.75;;;28.60;99.90;;;;;;5011608;28;20410;-82
2023/08/17 09:38:17;;;;;;;192.30;183.07;;;28.60;99.90;;;;;;5011725;28;20041;-80
2023/08/17 09:40:43;;;;;;;202.23;192.43;;;28.60;99.90;;;;;;5012950;28;20041;-82
2023/08/17 09:43:09;;;;;;;181.95;173.05;;;28.40;99.90;;;;;;5012052;28;20033;-81
2023/08/17 09:45:39;;;;;;;177.82;169.07;;;28.30;99.90;;;;;;5011323;28;20022;-82
2023/08/17 09:48:07;;;;;;;175.65;167.18;;;28.30;99.90;;;;;;5012484;28;20041;-80
2023/08/17 09:50:34;;;;;;;169.73;161.40;;;28.30;99.90;;;;;;5011329;28;20472;-81
2023/08/17 09:53:01;;;;;;;154.75;147.02;;;28.20;99.90;;;;;;5012790;28;20059;-82
2023/08/17 09:55:27;;;;;;;171.77;162.90;;;28.40;99.90;;;;;;5012386;28;20041;-81
2023/08/17 09:57:53;;;;;;;205.20;195.02;;;28.60;99.90;;;;;;5012851;28;20037;-82
2023/08/17 10:00:19;;;;;;;203.93;194.32;;;28.80;99.90;;;;;;5010536;28;20474;-81
2023/08/17 10:02:47;;;;;;;199.85;190.15;;;29.00;99.90;;;;;;5012731;28;20038;-81
2023/08/17 10:05:13;;;;;;;239.63;228.27;;;29.10;99.90;;;;;;5011267;28;20026;-81
2023/08/17 10:07:43;;;;;;;251.00;239.10;;;29.20;99.90;;;;;;5011600;28;20030;-82
2023/08/17 10:10:10;;;;;;;231.10;220.07;;;29.20;99.90;;;;;;5011260;28;20395;-82
2023/08/17 10:13:06;;;;;;;203.18;193.43;;;29.20;99.90;;;;;;5011065;28;20060;-83
2023/08/17 10:15:33;;;;;;;203.32;193.75;;;29.20;99.90;;;;;;5010538;28;20033;-81
2023/08/17 10:18:29;;;;;;;226.55;215.80;;;29.30;99.90;;;;;;5011550;28;20030;-82
2023/08/17 10:21:01;;;;;;;260.23;248.00;;;29.30;99.90;;;;;;5011371;28;20029;-81
2023/08/17 10:23:28;;;;;;;279.27;265.95;;;29.20;99.90;;;;;;5011556;28;20034;-82
2023/08/17 10:25:54;;;;;;;295.00;281.00;;;29.10;99.90;;;;;;5012408;28;20030;-81
2023/08/17 10:28:21;;;;;;;302.33;288.20;;;29.10;99.90;;;;;;5012455;28;20502;-81
2023/08/17 10:30:48;;;;;;;216.52;206.48;;;29.20;99.90;;;;;;5009986;28;20041;-81
2023/08/17 10:33:14;;;;;;;226.02;215.32;;;29.40;99.90;;;;;;5011572;28;20041;-80
2023/08/17 10:35:40;;;;;;;186.15;177.25;;;29.60;99.90;;;;;;4994718;28;20482;-80
2023/08/17 10:38:06;;;;;;;224.55;214.00;;;29.80;99.90;;;;;;5011308;28;20037;-81
2023/08/17 10:40:37;;;;;;;240.65;228.43;;;29.80;99.90;;;;;;5011101;28;20041;-82
2023/08/17 10:43:03;;;;;;;224.60;213.55;;;29.50;99.90;;;;;;5012305;28;20049;-81
2023/08/17 10:45:34;;;;;;;175.13;166.73;;;29.60;99.90;;;;;;5011386;28;20018;-80
2023/08/17 10:48:07;;;;;;;213.15;201.80;;;29.80;99.90;;;;;;5012388;28;20046;-81
2023/08/17 10:50:35;;;;;;;195.07;185.57;;;29.80;99.90;;;;;;5010854;28;20042;-81
2023/08/17 10:53:15;;;;;;;188.60;179.05;;;29.80;99.90;;;;;;5011065;28;20046;-81
2023/08/17 10:55:44;;;;;;;;;;;30.00;99.90;;;;;;5015556;28;20050;-82
2023/08/17 10:58:12;;;;;;;189.07;178.88;;;29.80;99.90;;;;;;5016078;28;19909;-82
2023/08/17 11:00:38;;;;;;;224.93;212.73;;;29.80;99.90;;;;;;5015283;28;20062;-81
2023/08/17 11:03:31;;;;;;;271.20;257.75;;;29.80;99.90;;;;;;5015901;28;20033;-82
2023/08/17 11:05:58;;;;;;;254.00;240.68;;;29.80;99.90;;;;;;5013694;28;20034;-81
2023/08/17 11:08:42;;;;;;;259.50;247.10;;;29.70;99.90;;;;;;5014817;28;20030;-82
2023/08/17 11:11:14;;;;;;;237.40;226.05;;;29.80;99.90;;;;;;5015700;28;20033;-82
2023/08/17 11:13:41;;;;;;;229.85;218.63;;;30.00;99.90;;;;;;5015507;28;20033;-81
2023/08/17 11:16:08;;;;;;;226.38;215.30;;;30.10;99.90;;;;;;5014858;28;20056;-80
2023/08/17 11:18:35;;;;;;;196.05;186.23;;;30.10;99.90;;;;;;5015853;28;20049;-80
2023/08/17 11:21:05;;;;;;;233.68;221.85;;;30.30;99.90;;;;;;5015721;28;20048;-81
2023/08/17 11:23:32;;;;;;;184.43;175.20;;;30.40;99.90;;;;;;5015764;28;20037;-82
2023/08/17 11:25:58;;;;;;;299.95;284.77;;;30.50;99.90;;;;;;5015176;28;20033;-81
2023/08/17 11:28:24;;;;;;;414.45;393.17;;;30.70;99.90;;;;;;5014107;28;20459;-80
2023/08/17 11:30:58;;;;;;;274.23;260.83;;;30.50;99.90;;;;;;5014515;28;20045;-81
2023/08/17 11:33:26;;;;;;;248.55;236.02;;;30.50;99.90;;;;;;5014314;28;20473;-82
2023/08/17 11:36:00;;;;;;;297.08;282.85;;;30.30;99.90;;;;;;5014947;28;20049;-83
2023/08/17 11:38:30;;;;;;;223.25;212.68;;;30.10;99.90;;;;;;5015522;28;20034;-82
2023/08/17 11:40:57;;;;;;;276.33;263.17;;;30.00;99.90;;;;;;5014083;28;20042;-83
2023/08/17 11:43:23;;;;;;;336.25;320.08;;;29.80;99.90;;;;;;5013705;28;20024;-81
2023/08/17 11:45:50;;;;;;;310.30;295.02;;;29.70;99.90;;;;;;5014419;28;20483;-82
2023/08/17 11:48:19;;;;;;;503.77;476.92;;;29.70;99.90;;;;;;5015087;28;20032;-80
2023/08/17 11:50:45;;;;;;;458.48;434.35;;;29.70;99.90;;;;;;5013554;28;20037;-80
2023/08/17 11:53:11;;;;;;;234.35;223.02;;;29.80;99.90;;;;;;5013948;28;20411;-82
2023/08/17 11:55:37;;;;;;;260.55;248.20;;;29.80;99.90;;;;;;5014772;28;20045;-82
2023/08/17 11:58:04;;;;;;;300.40;285.88;;;29.80;99.90;;;;;;5014578;28;20044;-82
2023/08/17 12:00:46;;;;;;;297.45;283.17;;;29.80;99.90;;;;;;5014193;28;20042;-82
2023/08/17 12:03:15;;;;;;;253.50;241.13;;;30.00;99.90;;;;;;5014864;28;20471;-82
2023/08/17 12:05:43;;;;;;;259.08;246.40;;;29.90;99.90;;;;;;5013813;28;20041;-82
2023/08/17 12:08:09;;;;;;;274.42;261.23;;;30.10;99.90;;;;;;5014773;28;20025;-82
2023/08/17 12:10:37;;;;;;;214.70;204.30;;;30.30;99.90;;;;;;5013340;28;20034;-82
2023/08/17 12:13:03;;;;;;;256.00;243.73;;;30.40;99.90;;;;;;5014868;28;20041;-81
2023/08/17 12:15:33;;;;;;;272.95;259.50;;;30.50;99.90;;;;;;5013965;28;20033;-76
2023/08/17 12:18:01;;;;;;;330.40;314.17;;;30.20;99.90;;;;;;5014576;28;20033;-82
2023/08/17 12:20:27;;;;;;;311.02;296.00;;;30.30;99.90;;;;;;5013059;28;20034;-81